»·PEaware :: WAT847 KSLC-KBOI

WAT847 :: KSLC-KBOI

FLIGHT INFORMATION

Flight Status: Arrived
Operator:
Walker Air Transport
More flights by this operator :: More flights under this callsign
Pilot: Charlton B. (28558)
Aircraft: EMBRAER EMB-170/175
(E170)
More flights by this aircraft type
Origin: KSLC Salt Lake City Intl
United States
Destination: KBOI Boise Air Terminal/Gowen
United States
More flights between these airports :: More routes between these airports
Route: CGULL1 TWF BROPH SPUUD3
File this flight plan on PilotEdge
Remarks:
Altitude:
(Current/Filed)
32,000ft
Speed:
(Current/Filed)
416kts
Departed: 01-Jul-22 03:38 PM
Arrived: 01-Jul-22 04:21 PM
Distance/Time
Traveled:
252nm/0:43
Distance/Time
To Go:
Arrived

Flight Plot

Page will automatically refresh every two minutes.

Flight plan parsing failed; only flown route is shown


Map Options




Map Legend


Flown Route
Filed Route
Departure Airport
Arrival Airport
Navaid (VOR, NDB)
Fix

Horizontal Profiles

Position Reports

Time Latitude Longitude Heading Altitude Ground
Speed
01-Jul-22 14:47 40.788815 -111.991906 174 4222ft 0kts
01-Jul-22 14:49 40.788815 -111.991906 174 4222ft 0kts
01-Jul-22 14:49 40.788815 -111.991906 174 4222ft 0kts
01-Jul-22 14:50 40.788815 -111.991906 174 4222ft 0kts
01-Jul-22 14:51 40.788815 -111.991906 174 4222ft 0kts
01-Jul-22 14:52 40.788815 -111.991906 174 4222ft 0kts
01-Jul-22 14:53 40.788815 -111.991906 174 4222ft 0kts
01-Jul-22 14:54 40.788815 -111.991906 174 4222ft 0kts
01-Jul-22 14:55 40.788815 -111.991906 174 4222ft 0kts
01-Jul-22 14:56 40.788815 -111.991906 174 4222ft 0kts
01-Jul-22 14:57 40.788815 -111.991906 174 4222ft 0kts
01-Jul-22 14:58 40.788815 -111.991906 174 4222ft 0kts
01-Jul-22 14:59 40.788815 -111.991906 174 4222ft 0kts
01-Jul-22 15:05 40.788815 -111.991906 174 4222ft 0kts
01-Jul-22 15:06 40.788815 -111.991906 174 4222ft 0kts
01-Jul-22 15:07 40.788815 -111.991906 174 4222ft 0kts
01-Jul-22 15:08 40.788815 -111.991906 174 4222ft 0kts
01-Jul-22 15:09 40.788815 -111.991906 174 4222ft 0kts
01-Jul-22 15:10 40.788815 -111.991906 174 4222ft 0kts
01-Jul-22 15:11 40.788815 -111.991906 174 4222ft 0kts
01-Jul-22 15:12 40.788815 -111.991906 174 4222ft 0kts
01-Jul-22 15:14 40.788815 -111.991906 174 4222ft 0kts
01-Jul-22 15:15 40.788815 -111.991906 174 4222ft 0kts
01-Jul-22 15:18 40.788815 -111.991906 174 4222ft 0kts
01-Jul-22 15:19 40.788815 -111.991906 174 4222ft 0kts
01-Jul-22 15:23 40.788815 -111.991906 174 4222ft 0kts
01-Jul-22 15:24 40.788815 -111.991906 174 4222ft 0kts
01-Jul-22 15:25 40.788815 -111.991906 174 4222ft 0kts
01-Jul-22 15:26 40.788815 -111.991906 174 4222ft 0kts
01-Jul-22 15:27 40.788815 -111.991906 174 4222ft 0kts
01-Jul-22 15:28 40.788815 -111.991906 174 4222ft 0kts
01-Jul-22 15:29 40.788706 -111.992064 231 4222ft 3kts
01-Jul-22 15:30 40.787178 -111.993452 206 4222ft 9kts
01-Jul-22 15:31 40.782704 -111.993180 177 4222ft 18kts
01-Jul-22 15:32 40.777294 -111.992607 171 4222ft 19kts
01-Jul-22 15:33 40.775084 -111.993834 260 4225ft 0kts
01-Jul-22 15:34 40.775084 -111.993834 260 4225ft 0kts
01-Jul-22 15:35 40.775041 -111.994485 272 4225ft 3kts
01-Jul-22 15:36 40.775478 -111.995511 354 4225ft 0kts
01-Jul-22 15:37 40.792971 -111.997697 349 4240ft 174kts
01-Jul-22 15:38 40.852920 -112.024318 330 6167ft 257kts
01-Jul-22 15:39 40.918755 -112.065337 330 8467ft 274kts
01-Jul-22 15:40 40.987420 -112.108486 331 11245ft 271kts
01-Jul-22 15:41 41.043189 -112.171695 287 14257ft 261kts
01-Jul-22 15:42 41.077247 -112.275725 293 15325ft 342kts
01-Jul-22 15:43 41.124112 -112.396459 294 17915ft 362kts
01-Jul-22 15:44 41.178334 -112.515751 314 20414ft 380kts
01-Jul-22 15:45 41.265153 -112.607292 315 22530ft 392kts
01-Jul-22 15:46 41.342552 -112.715634 307 24519ft 395kts
01-Jul-22 15:47 41.419287 -112.828738 305 26288ft 401kts
01-Jul-22 15:48 41.494992 -112.945301 305 27897ft 407kts
01-Jul-22 15:50 41.649369 -113.183626 305 30688ft 414kts
01-Jul-22 15:51 41.725766 -113.301813 304 32008ft 394kts
01-Jul-22 15:54 41.952259 -113.654956 304 32042ft 404kts
01-Jul-22 15:57 42.178266 -114.009821 304 32045ft 404kts
01-Jul-22 15:58 42.253392 -114.129490 304 32042ft 404kts
01-Jul-22 15:59 42.328372 -114.248916 304 32042ft 404kts
01-Jul-22 16:00 42.403238 -114.368185 304 32041ft 405kts
01-Jul-22 16:01 42.478532 -114.487829 304 32039ft 403kts
01-Jul-22 16:02 42.552989 -114.607259 305 32058ft 403kts
01-Jul-22 16:03 42.628232 -114.727787 304 32047ft 404kts
01-Jul-22 16:04 42.706004 -114.852164 306 30183ft 431kts
01-Jul-22 16:05 42.790047 -114.975438 309 27291ft 430kts
01-Jul-22 16:06 42.872653 -115.094191 309 24468ft 414kts
01-Jul-22 16:07 42.953461 -115.211095 308 21747ft 407kts
01-Jul-22 16:08 43.031999 -115.325577 309 19128ft 395kts
01-Jul-22 16:09 43.108314 -115.436692 310 16625ft 384kts
01-Jul-22 16:10 43.182520 -115.545079 310 14221ft 366kts
01-Jul-22 16:11 43.251075 -115.645417 311 12025ft 334kts
01-Jul-22 16:12 43.313944 -115.729634 314 10579ft 282kts
01-Jul-22 16:13 43.369584 -115.801712 313 9576ft 268kts
01-Jul-22 16:14 43.422553 -115.874065 313 7838ft 257kts
01-Jul-22 16:15 43.467013 -115.948423 298 6326ft 221kts
01-Jul-22 16:16 43.495437 -116.021040 295 5295ft 189kts
01-Jul-22 16:17 43.518000 -116.084744 294 4562ft 154kts
01-Jul-22 16:18 43.534822 -116.137248 293 3813ft 140kts
01-Jul-22 16:19 43.549865 -116.183576 296 3252ft 127kts
01-Jul-22 16:20 43.563779 -116.224350 294 2847ft 22kts
01-Jul-22 16:21 43.566683 -116.230058 22 2840ft 0kts
01-Jul-22 16:22 43.568508 -116.228777 69 2840ft 2kts
01-Jul-22 16:23 43.567213 -116.224241 103 2846ft 16kts

Navigation Log

Ident Type
Flight plan parsing failed, navigation log unavailable